Archival Weather

Chicago O'Hare International

Chicago, Illinois (KORD)

Report from: Wednesday, December 21, 2022 1:20 PM CST
Current time: Friday, June 21, 2024 3:35 AM CDT

Current weather – Weather history – Daily summaries
Weather forecast

Temperature-3.3°C (26.1°F)
Wind chill-5.6°C (21.9°F)
Dew point-8.3°C (17.1°F)
Winds 3 kts (1.5 m/s, 3.5 mph) East-Northeast (70°)
Visibility10 mi. (16.1 km)
Clouds Ceiling: Broken clouds 1,800 ft. (549 m)
Broken clouds 2,500 ft. (762 m)
Overcast 3,000 ft. (914 m)
Altimeter30.31 in.Hg (1026 mB)
Relative humidity68 %
Density altitude-2,648 ft. (-807 m)
Remarks Automated weather observing station with precipitation discriminator
Flight conditions Marginal Visual Meteorological Conditions
Raw dataKORD 211920Z 07003KT 10SM BKN018 BKN025 OVC030 M03/M08 A3031 RMK AO2 T10331083
An error has occurred. This application may no longer respond until reloaded. Reload 🗙